Terminal Aerodrome Forecast
Issued by NWS Greer, SC

Home | Current Version | Previous Version | Text Only | Print | Product List | Glossary On
Versions: 1 2 3 4 5 6 7 8 9 10 11 12 13 14 15 16 17 18 19 20 21 22 23 24 25 26 27 28 29 30 31 32 33 34 35 36 37 38 39 40 41 42 43 44 45 46 47 48 49 50
364
FTUS42 KGSP 251502 AAB
TAFCLT
TAF AMD
KCLT 251502Z 2515/2612 24012G21KT P6SM VCSH SCT025 SCT090
      TEMPO 2516/2518 VRB10G27KT 4SM -TSRA BKN020CB
     FM252100 28014G24KT P6SM FEW250
     FM260300 32010KT P6SM SKC
     FM260600 31006KT P6SM SKC=

USA.gov is the U.S. government's official web portal to all federal, state and local government web resources and services.